Latest Observation

42 Stations

15 Minute Data | America/Los_Angeles
as of 9/3/26 11:30 AM PDT
Station Date Time Temp (°F) RH (%) Dew Pt (°F) Wind Spd (mph) Wind Dir (°) Wind Gust (mph) Latest Rain (In) Daily Rain (In) Daily Min Temp (°F) Daily Max Temp (°F) Daily Max Wind (mph)
Elk Mt. Farm 8/13/26 1500 85.6   7.4 - - - - - - - 51.4   1.1 85.6   7.4 -
Upper Lake 9/3/26 1115 63.6   0.4 80   7 57.5   2.1 3.9 SSE | 157 7.9   4.4 0.00 0.02 58.1   8.2 63.9   1.8 7.9   4.4
Scotts Valley 9/3/26 1115 63.7   1.1 77   4 56.3   0.6 3.6 SSW | 212 9.1   0.4 0.00 0.00 58.3   6.3 64.0   1.5 9.1   0.4
Scotts Valley-South (Bella Vista) 9/3/26 1130 63.6   1.1 71   9 54.0   2.8 4.6 SSW | 197 8.4   1.4 0.00 0.01 57.8   5.0 63.8   1.7 9.1   0.5
Kelseyville 9/3/26 1130 65.7   0.1 65   0 53.8   0.2 4.8 SW | 224 10.7   3.1 0.00 0.00 58.6   4.7 65.8   0.4 14.0   0.2
Kelseyville Remote 9/3/26 1130 67.0   0.9 56   3 50.7   0.8 - - - 0.00 0.00 59.4   4.9 67.0   0.9 -
Kelseyville (Clark Drive) 9/3/26 1130 67.7   0.6 - - - - - 0.00 0.00 56.7   3.3 68.2   1.3 -
Kelsey Bench (Oaklea) 9/3/26 1130 64.5   2.8 61   6 50.6   0.1 8.5 SSW | 202 14.2   1.9 0.00 0.00 55.8   3.1 64.8   0.6 14.2   1.9
Smith Lane (Kelseyville-South) 9/3/26 1115 66.4   0.8 61   7 52.7   2.2 6.0 SSW | 211 13.3   2.8 0.00 0.00 58.6   4.9 66.4   0.9 14.4   3.9
Bell Hill-West 9/3/26 1115 65.4   2.3 72   8 56.2   0.8 7.3 SSW | 207 11.8   1.7 0.00 0.00 57.2   2.9 65.7   1.6 14.5   1.7
High Valley Ridgeline (Brassfield) 9/3/26 1130 59.8   2.1 76   5 52.4   0.1 11.6 WSW | 238 17.9   3.5 0.00 0.01 55.0   3.7 60.0   2.3 20.4   6.0
Wight Way (Adobe Creek) 9/3/26 1100 65.5   1.2 67   5 54.2   0.8 4.1 WSW | 244 11.7   3.9 0.00 0.00 55.5   1.7 66.8   1.2 13.0   4.8
Ridgeline Top (Brassfield) 9/3/26 1130 60.6   2.6 - - - - - - - 54.8   3.7 61.1   3.5 -
Ridgeline Low (Brassfield) 9/3/26 1130 61.7   1.2 - - - - - - - 56.8   4.6 61.9   1.9 -
Long Valley (Shannon) 6/29/26 1400 84.9   4.6 25   1 44.9   3.2 2.9 ENE | 75 10.2   0.4 0.00 0.00 46.4   0.4 86.9   6.5 13.7   1.8
High Valley Winery 9/3/26 1130 62.9   2.4 71   12 53.4   2.9 9.8 SW | 232 16.4   5.0 0.00 0.01 57.3   4.2 64.0   2.2 16.4   3.5
Round Mtn Rd. 9/3/26 1130 62.8   2.8 - - - - - - - 57.0   5.3 62.8   3.4 -
Circle O 9/3/26 1115 60.4   1.5 - - - - - - - 56.0   5.8 61.0   2.2 -
Robertsbridge Vineyards 9/3/26 1115 63.8   1.4 69   1 53.6   0.9 - - - - - 56.3   5.8 65.0   1.9 -
Urgency Vineyard 9/3/26 1115 65.2   1.0 70   13 55.1   4.9 3.9 WSW | 247 9.7   0.3 0.00 0.01 55.4   2.5 65.2   1.7 11.9   1.9
Red Hills (Beckstoffer) 9/3/26 1130 66.4   1.2 62   10 52.8   3.6 - - - 0.00 0.00 55.5   2.4 67.0   0.6 -
Winters (Shannon) 9/3/26 1130 62.6   1.7 68   12 51.7   3.8 4.7 W | 261 14.9   5.1 0.00 0.00 50.0   0.5 63.3   1.0 14.9   4.5
Secret Pond (Shannon) 9/3/26 1115 60.9   1.9 73   16 52.4   4.9 5.4 W | 279 12.1   0.7 0.00 0.00 51.8   1.4 61.3   1.5 13.4   0.7
Rolling Knolls (Shannon) 9/3/26 1115 64.5   0.7 69   8 54.3   2.7 4.1 W | 274 13.8   2.8 0.00 0.00 50.9   1.0 64.9   2.9 15.8   4.8
Lower Lake 9/3/26 1115 65.4   0.9 67   4 54.3   0.9 5.1 W | 274 12.8   2.6 0.00 0.00 52.8   0.5 65.9   0.8 13.4   0.5
Adamson Ranch 9/3/26 1130 64.4   3.6 77   18 57.2   4.0 9.0 S | 186 16.0   2.2 0.00 0.00 56.8   7.2 68.0   1.9 17.1   2.4
Middletown (Diamond D) 9/3/26 1115 62.5   1.6 91   8 59.8   0.9 4.0 N | 353 9.0   4.4 0.02 0.02 57.6   2.4 64.8   0.3 11.8   2.2
Middletown-West (Domaine Helena) 9/3/26 1130 61.7   2.9 90   8 58.6   0.2 9.3 SW | 227 14.9   2.8 0.01 0.08 55.6   2.0 63.7   1.3 17.5   4.4
Middletown-South 9/3/26 1115 61.5   1.3 92   4 59.3   2.6 2.9 SW | 214 11.0   2.1 0.03 0.18 56.8   2.4 62.6   2.0 17.8   4.6
Jim Davis (Langtry) 9/3/26 1115 68.8   1.5 73   7 59.8   4.3 8.0 SSW | 208 16.8   2.1 0.00 0.00 58.0   5.0 69.0   1.7 20.0   5.3
Napa Valley Basin 9/3/26 1115 65.0   2.1 82   15 59.4   3.5 7.2 SSW | 211 11.9   1.0 0.00 0.00 54.1   4.5 65.9   2.9 13.2   0.4
Lower Bohn 9/3/26 1130 64.5   3.1 83   18 59.1   3.7 6.3 SSE | 149 12.5   1.0 0.00 0.00 57.6   8.7 65.7   2.8 17.7   2.6
Upper Bohn-North 9/3/26 1115 66.0   0.5 84   13 61.1   5.2 4.5 SSE | 160 9.6   0.8 0.00 0.00 56.4   5.0 66.0   1.3 10.2   0.1
Snell Peak Blk#9 9/3/26 1130 62.6   2.2 94   23 60.8   5.8 4.8 S | 189 11.5   4.7 0.00 0.00 55.8   0.5 62.7   2.5 11.8   1.4
Coyote Lake West 9/3/26 1130 64.2   1.5 83   13 59.0   3.1 6.6 SSW | 200 12.7   0.1 0.00 0.00 55.2   2.7 64.3   1.6 12.7   0.1
Coyote Lake Northeast 9/3/26 1130 65.5   1.6 81   12 59.4   3.0 - - - - - 55.8   1.9 65.5   2.2 -
Coyote Lake East 9/3/26 1130 65.7   2.2 81   13 59.6   2.7 - - - - - 52.2   1.4 65.9   2.2 -
Morgan Valley 9/3/26 0745 55.2   2.2 100   0 55.2   2.2 5.8 SSW | 206 8.9   1.9 0.00 0.00 51.6   0.0 56.0   2.3 22.2   5.7
Mine Pit North 9/3/26 0730 55.4   0.0 91   2 52.8   0.5 12.3 SSW | 196 17.9   6.0 - - 52.4   0.3 56.0   0.2 19.0   1.5
Mine Pit South 9/3/26 0730 56.1   1.2 89   2 53.0   1.9 7.3 SSW | 212 12.7   4.8 0.00 0.00 52.5   1.2 56.4   1.1 13.4   0.8
Cow Mountain 9/3/26 1130 51.6   0.7 - - 11.9 W | 266 20.0   7.0 0.00 0.11 49.1   2.3 53.4   0.9 26.5   8.6
Ukiah-SE (Ruddick) 9/3/26 1130 63.2   4.1 87   23 59.2   4.7 4.3 N | 3 7.2   3.2 0.00 0.08 57.0   1.8 63.8   3.9 12.5   2.1
Max     68.8 94 61.1 11.9 - 20.0 0.03 0.18 59.4 69.0 26.5
Avg     63.7 75 56.1 6.2 - 12.5 0.00 - - - -
Min     51.6 56 50.6 2.9 - 7.2 0.00 0.00 49.1 53.4 7.9